Time;durP1;ratioP1;P1;durP2;ratioP2;P2;SDS_P1;SDS_P2;PMS_P1;PMS_P2;Temp;Humidity;BMP_temperature;BMP_pressure;BME280_temperature;BME280_humidity;BME280_pressure;Samples;Min_cycle;Max_cycle;Signal;HPM_P1;HPM_P2
2023/07/11 00:00:35;;;;;;;3.47;2.10;;;18.20;99.90;;;;;;4960838;28;20081;-91
2023/07/11 00:03:01;;;;;;;7.05;2.20;;;18.20;99.90;;;;;;4981601;28;20034;-91
2023/07/11 00:05:27;;;;;;;2.80;1.95;;;18.10;99.90;;;;;;4963810;28;20127;-90
2023/07/11 00:07:53;;;;;;;7.47;2.10;;;18.20;99.90;;;;;;5058246;28;20047;-91
2023/07/11 00:10:19;;;;;;;4.28;1.90;;;18.10;99.90;;;;;;4975756;28;20049;-91
2023/07/11 00:12:45;;;;;;;5.18;2.10;;;18.00;99.90;;;;;;4968172;28;20151;-90
2023/07/11 00:15:14;;;;;;;3.92;2.17;;;18.00;99.90;;;;;;4960541;28;20455;-91
2023/07/11 00:17:40;;;;;;;4.53;2.13;;;17.90;99.90;;;;;;4966886;28;20042;-90
2023/07/11 00:20:11;;;;;;;6.63;2.13;;;17.80;99.90;;;;;;4968506;28;20685;-91
2023/07/11 00:22:42;;;;;;;5.07;2.30;;;17.80;99.90;;;;;;4996210;28;20046;-91
2023/07/11 00:25:08;;;;;;;4.38;2.30;;;17.70;99.90;;;;;;4967805;28;20054;-91
2023/07/11 00:27:34;;;;;;;4.45;2.28;;;17.60;99.90;;;;;;4968211;28;20046;-91
2023/07/11 00:30:03;;;;;;;3.50;2.53;;;17.40;99.90;;;;;;4975809;28;20039;-90
2023/07/11 00:32:28;;;;;;;5.35;2.30;;;17.40;99.90;;;;;;4967574;28;20042;-89
2023/07/11 00:34:57;;;;;;;3.92;2.42;;;17.30;99.90;;;;;;4958712;28;20076;-91
2023/07/11 00:37:22;;;;;;;7.68;2.83;;;17.30;99.90;;;;;;4955339;28;20038;-91
2023/07/11 00:39:48;;;;;;;4.57;3.03;;;17.40;99.90;;;;;;5034303;28;20092;-92
2023/07/11 00:42:14;;;;;;;4.00;2.47;;;17.50;99.90;;;;;;4978505;28;20039;-91
2023/07/11 00:44:59;;;;;;;3.67;2.80;;;17.50;99.90;;;;;;4950005;28;20043;-91
2023/07/11 00:47:27;;;;;;;5.53;2.70;;;16.80;99.90;;;;;;4991529;28;20035;-90
2023/07/11 00:50:00;;;;;;;6.35;2.58;;;17.50;99.90;;;;;;5064862;28;20054;-91
2023/07/11 00:52:31;;;;;;;4.47;2.92;;;17.60;99.90;;;;;;4971747;28;21298;-90
2023/07/11 00:55:01;;;;;;;4.20;2.80;;;17.10;99.90;;;;;;5055225;28;20038;-89
2023/07/11 00:57:31;;;;;;;8.82;3.30;;;17.70;99.90;;;;;;5027659;28;20726;-91
2023/07/11 00:59:58;;;;;;;5.55;3.15;;;17.70;99.90;;;;;;5001038;28;20132;-90
2023/07/11 01:02:32;;;;;;;12.32;2.85;;;17.70;99.90;;;;;;5036732;28;20042;-91
2023/07/11 01:05:03;;;;;;;5.07;2.63;;;18.20;99.90;;;;;;4991633;28;20452;-91
2023/07/11 01:07:37;;;;;;;5.07;3.03;;;17.60;99.90;;;;;;4986084;28;20075;-90
2023/07/11 01:10:04;;;;;;;4.80;2.63;;;17.60;99.90;;;;;;4978693;28;20135;-91
2023/07/11 01:12:30;;;;;;;4.30;2.42;;;17.50;99.90;;;;;;4998147;28;20034;-91
2023/07/11 01:14:56;;;;;;;5.68;2.42;;;17.40;99.90;;;;;;4961474;28;20038;-90
2023/07/11 01:17:27;;;;;;;4.75;2.72;;;17.30;99.90;;;;;;5024852;28;20047;-90
2023/07/11 01:19:55;;;;;;;5.95;3.00;;;17.40;99.90;;;;;;5032909;28;20048;-90
2023/07/11 01:22:22;;;;;;;5.80;2.88;;;17.30;99.90;;;;;;5044389;28;20088;-91
2023/07/11 01:24:49;;;;;;;5.32;2.60;;;16.90;99.90;;;;;;4968152;28;20088;-91
2023/07/11 01:27:15;;;;;;;5.80;2.65;;;17.30;99.90;;;;;;4954929;28;20039;-91
2023/07/11 01:29:41;;;;;;;7.65;2.70;;;17.20;99.90;;;;;;5067247;28;20062;-90
2023/07/11 01:32:08;;;;;;;7.35;2.75;;;17.20;99.90;;;;;;4955578;28;20125;-90
2023/07/11 01:34:38;;;;;;;5.15;2.85;;;17.20;99.90;;;;;;5071859;28;20046;-90
2023/07/11 01:37:04;;;;;;;5.65;2.40;;;17.30;99.90;;;;;;4966969;28;20064;-91
2023/07/11 01:39:29;;;;;;;4.70;3.10;;;17.40;99.90;;;;;;4956204;28;20038;-90
2023/07/11 01:41:55;;;;;;;7.00;3.00;;;17.40;99.90;;;;;;5058392;28;20047;-90
2023/07/11 01:44:22;;;;;;;4.53;3.03;;;17.50;99.90;;;;;;4965319;28;20410;-89
2023/07/11 01:46:48;;;;;;;6.50;2.72;;;17.50;99.90;;;;;;4972736;28;20047;-91
2023/07/11 01:49:14;;;;;;;4.80;2.60;;;17.50;99.90;;;;;;5044281;28;20122;-90
2023/07/11 01:51:45;;;;;;;5.82;2.90;;;17.60;99.90;;;;;;4975634;28;20096;-90
2023/07/11 01:54:12;;;;;;;4.30;2.40;;;17.10;99.90;;;;;;4956677;28;20035;-89
2023/07/11 01:56:38;;;;;;;5.05;2.92;;;17.60;99.90;;;;;;4967670;28;20054;-90
2023/07/11 01:59:04;;;;;;;3.78;2.50;;;17.70;99.90;;;;;;4963097;28;20039;-91
2023/07/11 02:01:29;;;;;;;4.07;2.58;;;17.70;99.90;;;;;;5066917;28;20184;-91
2023/07/11 02:03:55;;;;;;;5.10;2.53;;;17.70;99.90;;;;;;5042704;28;20066;-89
2023/07/11 02:06:21;;;;;;;4.15;2.10;;;17.80;99.90;;;;;;5014246;28;20043;-90
2023/07/11 02:08:47;;;;;;;3.55;2.33;;;17.80;99.90;;;;;;4955792;28;20043;-91
2023/07/11 02:11:13;;;;;;;4.70;2.22;;;17.80;99.90;;;;;;5059231;28;20081;-90
2023/07/11 02:13:40;;;;;;;4.75;2.50;;;17.90;99.90;;;;;;4974097;28;20066;-90
2023/07/11 02:16:07;;;;;;;5.88;2.40;;;17.90;99.90;;;;;;4973855;28;20045;-90
2023/07/11 02:18:34;;;;;;;6.15;2.55;;;17.80;99.90;;;;;;4954658;28;20050;-89
2023/07/11 02:21:00;;;;;;;3.35;2.40;;;17.80;99.90;;;;;;4961607;28;20070;-90
2023/07/11 02:23:26;;;;;;;4.22;2.20;;;17.80;99.90;;;;;;4955164;28;20362;-90
2023/07/11 02:25:53;;;;;;;4.13;2.30;;;17.80;99.90;;;;;;5087465;28;20115;-90
2023/07/11 02:28:22;;;;;;;3.88;2.50;;;17.80;99.90;;;;;;5005872;28;22053;-90
2023/07/11 02:30:48;;;;;;;3.00;2.00;;;17.70;99.90;;;;;;4978200;28;20065;-90
2023/07/11 02:33:14;;;;;;;4.53;2.40;;;17.70;99.90;;;;;;4953806;28;20429;-90
2023/07/11 02:35:40;;;;;;;5.85;2.65;;;17.70;99.90;;;;;;4975764;28;20030;-90
2023/07/11 02:38:06;;;;;;;4.05;2.15;;;17.60;99.90;;;;;;4971956;28;20050;-91
2023/07/11 02:40:35;;;;;;;3.47;2.45;;;17.70;99.90;;;;;;5054065;28;20042;-90
2023/07/11 02:43:00;;;;;;;5.55;3.15;;;17.60;99.90;;;;;;5060000;28;20039;-90
2023/07/11 02:45:26;;;;;;;3.42;2.40;;;17.60;99.90;;;;;;5041654;28;20049;-90
2023/07/11 02:47:57;;;;;;;4.70;2.50;;;17.60;99.90;;;;;;4963133;28;20452;-89
2023/07/11 02:50:26;;;;;;;3.92;2.63;;;16.90;99.90;;;;;;4958073;28;20119;-90
2023/07/11 02:52:52;;;;;;;4.82;2.97;;;17.50;99.90;;;;;;4954449;28;20038;-90
2023/07/11 02:55:18;;;;;;;4.60;2.78;;;17.50;99.90;;;;;;4960043;28;20053;-90
2023/07/11 02:57:44;;;;;;;5.20;2.90;;;17.60;99.90;;;;;;4984565;28;20384;-91
2023/07/11 03:00:10;;;;;;;7.10;2.83;;;17.50;99.90;;;;;;5069316;28;20095;-91
2023/07/11 03:02:36;;;;;;;6.30;2.63;;;17.50;99.90;;;;;;4959522;28;20050;-90
2023/07/11 03:05:03;;;;;;;5.47;2.58;;;17.50;99.90;;;;;;5049002;28;20039;-90
2023/07/11 03:07:28;;;;;;;8.05;2.83;;;17.50;99.90;;;;;;4956083;28;20043;-89
2023/07/11 03:09:54;;;;;;;7.82;2.90;;;17.40;99.90;;;;;;5087341;28;20030;-88
2023/07/11 03:12:20;;;;;;;3.95;2.40;;;17.40;99.90;;;;;;4982884;28;20034;-89
2023/07/11 03:14:49;;;;;;;4.05;2.58;;;17.40;99.90;;;;;;4967123;28;20042;-90
2023/07/11 03:17:15;;;;;;;4.65;2.58;;;17.50;99.90;;;;;;4978749;28;20050;-88
2023/07/11 03:19:40;;;;;;;4.50;2.60;;;17.50;99.90;;;;;;4971385;28;20046;-89
2023/07/11 03:22:06;;;;;;;4.80;2.85;;;17.50;99.90;;;;;;4971103;28;20031;-89
2023/07/11 03:24:32;;;;;;;6.65;3.13;;;16.50;99.90;;;;;;4968919;28;20035;-91
2023/07/11 03:26:58;;;;;;;5.03;2.67;;;17.50;99.90;;;;;;5056225;28;20076;-90
2023/07/11 03:29:23;;;;;;;5.53;2.60;;;17.60;99.90;;;;;;4973289;28;20043;-90
2023/07/11 03:31:50;;;;;;;5.47;2.30;;;17.50;99.90;;;;;;5067001;28;20043;-89
2023/07/11 03:34:16;;;;;;;3.65;2.30;;;17.60;99.90;;;;;;5063752;28;20100;-89
2023/07/11 03:36:42;;;;;;;5.15;2.33;;;17.50;99.90;;;;;;5011869;28;20077;-89
2023/07/11 03:39:08;;;;;;;5.43;2.60;;;17.50;99.90;;;;;;5025300;28;20049;-89
2023/07/11 03:41:34;;;;;;;5.35;2.40;;;17.50;99.90;;;;;;4955874;28;20046;-90
2023/07/11 03:44:01;;;;;;;4.35;2.38;;;17.60;99.90;;;;;;4971269;28;20126;-89
2023/07/11 03:46:26;;;;;;;5.10;2.28;;;17.70;99.90;;;;;;4973364;28;20050;-91
2023/07/11 03:48:54;;;;;;;5.22;2.70;;;17.60;99.90;;;;;;5062855;28;20102;-90
2023/07/11 03:51:20;;;;;;;5.03;2.88;;;17.70;99.90;;;;;;4975328;28;20078;-89
2023/07/11 03:53:46;;;;;;;6.13;2.83;;;17.80;99.90;;;;;;4967271;28;20517;-90
2023/07/11 03:56:12;;;;;;;5.95;2.60;;;17.80;99.90;;;;;;4970921;28;20035;-89
2023/07/11 03:58:38;;;;;;;6.07;2.83;;;17.80;99.90;;;;;;4954927;28;20527;-90
2023/07/11 04:01:04;;;;;;;5.45;2.67;;;17.80;99.90;;;;;;4966592;28;20051;-89
2023/07/11 04:03:29;;;;;;;4.22;2.67;;;17.90;99.90;;;;;;4963288;28;20117;-90
2023/07/11 04:05:56;;;;;;;5.90;2.88;;;17.80;99.90;;;;;;4955555;28;20073;-90
2023/07/11 04:08:22;;;;;;;3.65;2.85;;;17.90;99.90;;;;;;5032679;28;20740;-90
2023/07/11 04:10:47;;;;;;;5.20;2.67;;;17.90;99.90;;;;;;4967916;28;20471;-91
2023/07/11 04:13:13;;;;;;;6.45;2.95;;;17.90;99.90;;;;;;4962877;28;20034;-89
2023/07/11 04:15:39;;;;;;;5.28;2.72;;;17.90;99.90;;;;;;4967044;28;20043;-90
2023/07/11 04:18:05;;;;;;;5.15;3.05;;;17.90;99.90;;;;;;4959677;28;20042;-90
2023/07/11 04:20:31;;;;;;;5.75;2.70;;;17.60;99.90;;;;;;4990799;28;20042;-90
2023/07/11 04:22:56;;;;;;;5.88;3.05;;;17.90;99.90;;;;;;4982299;28;20046;-89
2023/07/11 04:25:23;;;;;;;6.78;2.90;;;18.00;99.90;;;;;;4978904;28;20049;-89
2023/07/11 04:27:49;;;;;;;6.18;2.88;;;17.90;99.90;;;;;;4973085;28;20405;-90
2023/07/11 04:30:15;;;;;;;5.53;3.00;;;17.90;99.90;;;;;;4965302;28;20052;-90
2023/07/11 04:32:43;;;;;;;7.15;2.78;;;17.90;99.90;;;;;;4956544;28;20042;-91
2023/07/11 04:35:13;;;;;;;4.85;2.70;;;18.00;99.90;;;;;;4973186;28;20047;-89
2023/07/11 04:37:39;;;;;;;5.47;3.45;;;17.90;99.90;;;;;;4966537;28;20035;-90
2023/07/11 04:40:06;;;;;;;6.90;3.38;;;18.00;99.90;;;;;;4959217;28;20039;-90
2023/07/11 04:42:32;;;;;;;6.38;3.47;;;18.00;99.90;;;;;;5068078;28;20570;-89
2023/07/11 04:44:58;;;;;;;4.38;3.00;;;18.10;99.90;;;;;;4960184;28;20114;-88
2023/07/11 04:47:25;;;;;;;5.80;3.10;;;18.00;99.90;;;;;;4966368;28;20030;-91
2023/07/11 04:49:51;;;;;;;7.78;3.30;;;18.00;99.90;;;;;;4962374;28;20046;-90
2023/07/11 04:52:17;;;;;;;6.22;3.00;;;18.00;99.90;;;;;;4971091;28;20045;-89
2023/07/11 04:54:44;;;;;;;5.32;3.25;;;18.10;99.90;;;;;;5071785;28;20050;-88
2023/07/11 04:57:10;;;;;;;5.25;2.97;;;18.00;99.90;;;;;;5041706;28;20039;-88
2023/07/11 04:59:39;;;;;;;7.22;3.60;;;18.00;99.90;;;;;;5036866;28;20043;-89
2023/07/11 05:02:04;;;;;;;3.95;3.40;;;18.00;99.90;;;;;;4976198;28;20042;-89
2023/07/11 05:04:31;;;;;;;5.13;3.45;;;18.00;99.90;;;;;;4956568;28;20037;-89
2023/07/11 05:07:00;;;;;;;4.13;3.10;;;18.00;99.90;;;;;;4987920;28;20030;-89
2023/07/11 05:09:28;;;;;;;6.82;3.38;;;18.10;99.90;;;;;;5041998;28;20036;-90
2023/07/11 05:11:53;;;;;;;4.28;3.08;;;18.10;99.90;;;;;;5008425;28;20110;-89
2023/07/11 05:14:19;;;;;;;5.28;3.28;;;18.10;99.90;;;;;;4972581;28;20169;-90
2023/07/11 05:16:45;;;;;;;7.80;3.33;;;18.20;99.90;;;;;;4973505;28;20046;-91
2023/07/11 05:19:14;;;;;;;4.20;3.00;;;18.20;99.90;;;;;;4947938;28;20501;-90
2023/07/11 05:21:39;;;;;;;5.88;3.60;;;18.30;99.90;;;;;;4981103;28;20041;-91
2023/07/11 05:24:05;;;;;;;4.78;3.15;;;18.40;99.90;;;;;;4971011;28;20051;-89
2023/07/11 05:26:32;;;;;;;4.35;3.47;;;18.40;99.90;;;;;;4975049;28;20046;-90
2023/07/11 05:28:58;;;;;;;6.75;3.65;;;18.50;99.90;;;;;;5013467;28;20034;-91
2023/07/11 05:31:24;;;;;;;7.00;3.55;;;18.60;99.90;;;;;;4980692;28;20555;-91
2023/07/11 05:33:53;;;;;;;7.13;3.70;;;18.70;99.90;;;;;;4958798;28;20068;-90
2023/07/11 05:36:33;;;;;;;6.40;3.97;;;18.90;99.90;;;;;;4966929;28;20406;-89
2023/07/11 05:39:15;;;;;;;6.43;3.45;;;19.00;99.90;;;;;;5054349;28;20105;-90
2023/07/11 05:41:46;;;;;;;5.88;3.92;;;19.20;99.90;;;;;;4963106;28;20043;-88
2023/07/11 05:44:18;;;;;;;7.07;3.13;;;19.10;99.90;;;;;;4964511;28;20069;-89
2023/07/11 05:46:44;;;;;;;5.80;3.85;;;19.30;99.90;;;;;;4959806;28;20049;-90
2023/07/11 05:49:11;;;;;;;6.35;4.32;;;19.30;99.90;;;;;;5037968;28;20050;-88
2023/07/11 05:51:37;;;;;;;8.60;3.83;;;19.40;99.90;;;;;;4958558;28;20640;-89
2023/07/11 05:54:03;;;;;;;6.63;3.33;;;19.30;99.90;;;;;;4955301;28;20047;-91
2023/07/11 05:56:28;;;;;;;5.43;3.50;;;19.50;99.90;;;;;;5058313;28;20098;-91
2023/07/11 05:58:56;;;;;;;3.60;3.00;;;19.60;99.90;;;;;;4957262;28;20072;-90
2023/07/11 06:01:26;;;;;;;6.65;3.33;;;19.50;99.90;;;;;;4960844;28;20041;-89
2023/07/11 06:04:07;;;;;;;9.55;4.18;;;19.60;99.90;;;;;;4973991;28;20382;-89
2023/07/11 06:06:35;;;;;;;6.55;4.45;;;19.60;99.90;;;;;;4978445;28;20520;-89
2023/07/11 06:09:02;;;;;;;6.55;4.10;;;19.60;99.90;;;;;;4972626;28;20038;-90
2023/07/11 06:11:27;;;;;;;8.57;4.60;;;19.60;99.90;;;;;;5055276;28;20104;-91
2023/07/11 06:13:53;;;;;;;6.93;4.82;;;19.70;99.90;;;;;;4974254;28;20073;-89
2023/07/11 06:16:19;;;;;;;6.72;3.78;;;19.80;99.90;;;;;;4962043;28;20581;-92
2023/07/11 06:18:47;;;;;;;8.75;4.05;;;19.80;99.90;;;;;;5071981;28;20035;-91
2023/07/11 06:21:13;;;;;;;7.50;4.30;;;19.80;99.90;;;;;;4954146;28;20046;-89
2023/07/11 06:23:39;;;;;;;6.13;3.97;;;19.90;99.90;;;;;;5038641;28;20039;-89
2023/07/11 06:26:05;;;;;;;5.72;4.00;;;19.90;99.90;;;;;;4957702;28;20046;-89
2023/07/11 06:28:32;;;;;;;8.70;4.10;;;20.10;99.90;;;;;;4953303;28;20067;-89
2023/07/11 06:31:00;;;;;;;8.77;4.05;;;20.10;99.90;;;;;;4987346;28;20045;-91
2023/07/11 06:33:29;;;;;;;6.13;4.35;;;20.40;99.90;;;;;;4993044;28;20038;-89
2023/07/11 06:35:56;;;;;;;6.50;4.03;;;20.50;99.90;;;;;;4980059;28;20133;-91
2023/07/11 06:38:21;;;;;;;7.13;3.78;;;20.70;99.90;;;;;;4973582;28;20073;-90
2023/07/11 06:40:52;;;;;;;8.60;4.03;;;20.90;99.90;;;;;;4954701;28;20030;-90
2023/07/11 06:43:19;;;;;;;5.80;3.60;;;21.20;99.90;;;;;;5051767;28;20043;-88
2023/07/11 06:45:49;;;;;;;6.53;3.20;;;21.30;99.90;;;;;;4956198;28;20038;-88
2023/07/11 06:48:17;;;;;;;6.97;3.80;;;21.50;99.90;;;;;;4991481;28;20059;-89
2023/07/11 06:50:50;;;;;;;5.45;3.50;;;21.60;99.90;;;;;;5012881;28;20047;-90
2023/07/11 06:53:18;;;;;;;5.53;3.15;;;21.70;99.90;;;;;;4968384;28;20061;-88
2023/07/11 06:55:50;;;;;;;4.93;3.25;;;21.90;99.90;;;;;;4972896;28;20125;-88
2023/07/11 06:58:16;;;;;;;6.18;3.10;;;22.10;99.90;;;;;;4967355;28;20042;-89
2023/07/11 07:00:42;;;;;;;8.30;3.50;;;22.20;99.90;;;;;;4953689;28;20074;-90
2023/07/11 07:03:12;;;;;;;5.15;2.83;;;22.50;99.90;;;;;;4961135;28;20050;-89
2023/07/11 07:05:53;;;;;;;6.78;3.50;;;22.40;99.90;;;;;;4954354;28;20047;-89
2023/07/11 07:08:20;;;;;;;5.50;3.47;;;22.60;99.90;;;;;;5055113;28;20046;-91
2023/07/11 07:10:47;;;;;;;9.98;3.42;;;22.50;99.90;;;;;;5055220;28;20065;-90
2023/07/11 07:13:15;;;;;;;5.28;3.10;;;22.40;99.90;;;;;;4953935;28;20043;-89
2023/07/11 07:15:41;;;;;;;5.50;3.03;;;22.70;99.90;;;;;;4955726;28;20158;-91
2023/07/11 07:18:07;;;;;;;5.10;3.13;;;22.70;99.90;;;;;;5075236;28;20065;-90
2023/07/11 07:20:33;;;;;;;5.20;2.88;;;22.80;99.90;;;;;;4974881;28;20320;-91
2023/07/11 07:22:59;;;;;;;4.57;3.50;;;22.90;99.90;;;;;;5055486;28;20132;-91
2023/07/11 07:25:24;;;;;;;8.20;3.50;;;23.10;99.90;;;;;;5059000;28;20050;-90
2023/07/11 07:27:50;;;;;;;4.80;3.13;;;23.30;99.90;;;;;;4940259;28;20046;-91
2023/07/11 07:30:16;;;;;;;5.07;3.05;;;23.30;99.90;;;;;;5047500;28;20394;-91
2023/07/11 07:32:48;;;;;;;5.28;3.05;;;23.30;99.90;;;;;;4941573;28;20131;-90
2023/07/11 07:35:14;;;;;;;4.85;3.15;;;23.40;99.90;;;;;;4961472;28;20478;-89
2023/07/11 07:37:49;;;;;;;6.60;3.25;;;23.50;99.90;;;;;;4996570;28;20042;-91
2023/07/11 07:40:25;;;;;;;8.55;3.63;;;23.40;99.90;;;;;;4986078;28;20045;-91
2023/07/11 07:43:01;;;;;;;7.78;3.33;;;23.40;99.90;;;;;;4981920;28;20046;-91
2023/07/11 07:45:27;;;;;;;4.82;3.13;;;23.50;99.90;;;;;;5028085;28;20039;-91
2023/07/11 07:47:55;;;;;;;5.20;3.03;;;23.60;99.90;;;;;;5034308;28;20053;-91
2023/07/11 07:50:24;;;;;;;6.18;3.60;;;23.70;99.90;;;;;;5065356;28;20046;-91
2023/07/11 07:52:50;;;;;;;5.60;2.80;;;23.70;99.90;;;;;;5079253;28;20044;-92
2023/07/11 07:55:23;;;;;;;6.50;2.97;;;23.80;99.90;;;;;;5042833;28;20490;-91
2023/07/11 07:57:49;;;;;;;5.55;2.92;;;24.00;99.90;;;;;;5009176;28;20036;-91
2023/07/11 08:00:15;;;;;;;4.10;3.20;;;23.80;99.90;;;;;;5080342;28;20040;-93
2023/07/11 08:02:43;;;;;;;3.83;2.97;;;23.90;99.90;;;;;;5054400;28;20484;-92
2023/07/11 08:05:09;;;;;;;6.07;3.25;;;23.80;99.90;;;;;;5046580;28;20068;-91
2023/07/11 08:07:35;;;;;;;4.32;2.90;;;23.90;99.90;;;;;;5062892;28;20070;-91
2023/07/11 08:10:01;;;;;;;6.13;2.90;;;24.10;99.90;;;;;;5078965;28;20127;-92
2023/07/11 08:12:29;;;;;;;5.22;2.88;;;24.30;99.90;;;;;;5075435;28;20043;-92
2023/07/11 08:14:55;;;;;;;4.13;2.58;;;24.40;99.90;;;;;;5095911;28;20036;-94
2023/07/11 08:17:21;;;;;;;5.05;2.47;;;24.60;99.90;;;;;;5048181;28;20474;-92
2023/07/11 08:19:50;;;;;;;6.05;2.95;;;24.60;99.90;;;;;;4971038;28;20113;-91
2023/07/11 08:22:16;;;;;;;3.85;2.70;;;24.70;99.90;;;;;;4968067;28;20593;-92
2023/07/11 08:24:45;;;;;;;7.20;2.80;;;24.80;99.90;;;;;;5079765;28;20089;-91
2023/07/11 08:27:10;;;;;;;4.93;2.90;;;24.90;99.90;;;;;;4973768;28;20046;-94
2023/07/11 08:29:44;;;;;;;4.63;2.60;;;24.70;99.90;;;;;;5058788;28;20047;-93
2023/07/11 08:32:14;;;;;;;8.38;2.63;;;24.70;99.90;;;;;;4955569;28;20134;-92
2023/07/11 08:34:42;;;;;;;6.93;2.95;;;24.70;99.90;;;;;;4975734;28;20100;-91
2023/07/11 08:37:13;;;;;;;3.65;2.67;;;24.70;99.90;;;;;;5036214;28;20451;-90
2023/07/11 08:39:39;;;;;;;4.55;2.50;;;24.80;99.90;;;;;;4958644;28;20662;-91
2023/07/11 08:42:29;;;;;;;4.15;2.60;;;24.90;99.90;;;;;;4952203;28;20047;-92
2023/07/11 08:45:19;;;;;;;6.53;3.00;;;24.80;99.90;;;;;;4957493;28;20038;-92
2023/07/11 08:48:13;;;;;;;7.32;3.13;;;24.70;99.90;;;;;;4977335;28;20136;-93
2023/07/11 08:51:21;;;;;;;4.78;2.60;;;24.70;99.90;;;;;;4988537;28;20050;-93
2023/07/11 08:53:55;;;;;;;5.18;2.90;;;24.80;99.90;;;;;;5074909;28;20046;-91
2023/07/11 08:56:43;;;;;;;7.25;3.40;;;24.70;99.90;;;;;;5010143;28;20149;-92
2023/07/11 08:59:19;;;;;;;4.07;2.45;;;24.90;99.90;;;;;;5077068;28;20044;-91
2023/07/11 09:01:52;;;;;;;4.38;2.70;;;25.10;99.90;;;;;;5015044;28;20046;-91
2023/07/11 09:04:21;;;;;;;5.60;2.63;;;25.30;99.90;;;;;;4988576;28;20585;-90
2023/07/11 09:06:54;;;;;;;4.97;2.88;;;25.50;99.90;;;;;;4979899;28;20075;-91
2023/07/11 09:09:20;;;;;;;7.82;2.70;;;25.60;99.90;;;;;;4989739;28;20130;-91
2023/07/11 09:12:37;;;;;;;5.32;2.80;;;25.80;99.90;;;;;;5046385;28;20078;-91
2023/07/11 09:15:28;;;;;;;4.03;2.55;;;26.10;99.90;;;;;;5011210;28;20142;-93
2023/07/11 09:18:20;;;;;;;5.40;2.90;;;26.40;99.90;;;;;;4957116;28;20137;-92
2023/07/11 09:21:00;;;;;;;6.47;2.90;;;26.50;99.90;;;;;;4972947;28;20078;-92
2023/07/11 09:23:52;;;;;;;7.47;2.67;;;26.70;99.90;;;;;;4996629;28;20032;-91
2023/07/11 09:26:44;;;;;;;4.75;2.80;;;26.70;99.90;;;;;;5003468;28;20494;-92
2023/07/11 09:29:10;;;;;;;6.82;2.38;;;27.10;99.90;;;;;;5038183;28;20036;-93
2023/07/11 09:31:43;;;;;;;4.85;2.40;;;26.90;99.90;;;;;;5016524;28;20050;-92
2023/07/11 09:34:36;;;;;;;3.87;2.60;;;26.90;99.90;;;;;;5073176;28;20121;-94
2023/07/11 09:37:27;;;;;;;5.38;2.20;;;26.80;99.90;;;;;;5073401;28;20348;-91
2023/07/11 09:40:09;;;;;;;3.33;2.10;;;26.80;99.90;;;;;;5075522;28;20050;-92
2023/07/11 09:42:43;;;;;;;5.30;2.60;;;26.70;99.90;;;;;;5074469;28;20038;-91
2023/07/11 09:45:15;;;;;;;7.25;2.45;;;26.70;99.90;;;;;;5078205;28;20046;-91
2023/07/11 09:47:47;;;;;;;4.47;2.33;;;26.80;99.90;;;;;;5022422;28;20063;-92
2023/07/11 09:50:31;;;;;;;4.50;2.58;;;27.20;99.90;;;;;;4992014;28;20055;-91
2023/07/11 09:53:00;;;;;;;2.90;1.92;;;27.80;1.00;;;;;;4974280;28;20050;-93
2023/07/11 09:55:36;;;;;;;3.55;2.28;;;28.20;89.50;;;;;;4971237;28;20074;-91
2023/07/11 09:58:02;;;;;;;6.75;2.15;;;28.40;18.60;;;;;;4945099;28;20061;-90
2023/07/11 10:00:29;;;;;;;3.42;1.70;;;28.60;99.90;;;;;;4962245;28;20091;-90
2023/07/11 10:03:00;;;;;;;3.78;1.90;;;28.50;1.00;;;;;;4974560;28;20048;-92
2023/07/11 10:05:28;;;;;;;5.30;1.80;;;28.60;1.00;;;;;;4958978;28;20046;-90
2023/07/11 10:08:18;;;;;;;8.68;2.10;;;28.60;99.90;;;;;;4957166;28;20491;-91
2023/07/11 10:10:49;;;;;;;2.72;1.90;;;28.40;99.90;;;;;;5057515;28;20122;-89
2023/07/11 10:13:16;;;;;;;4.40;1.73;;;28.60;6.50;;;;;;5073316;28;20111;-91
2023/07/11 10:15:42;;;;;;;4.32;1.77;;;28.60;93.00;;;;;;5057953;28;20135;-91
2023/07/11 10:18:22;;;;;;;3.83;2.22;;;28.70;99.90;;;;;;5078562;28;20035;-93
2023/07/11 10:21:27;;;;;;;5.28;1.90;;;28.80;27.90;;;;;;5079520;28;20071;-93
2023/07/11 10:23:54;;;;;;;4.43;1.75;;;28.30;99.90;;;;;;4995645;28;20157;-92
2023/07/11 10:26:26;;;;;;;2.92;1.80;;;28.50;1.00;;;;;;5075162;28;20043;-89
2023/07/11 10:29:10;;;;;;;4.63;2.00;;;28.60;1.00;;;;;;4977422;28;20386;-90
2023/07/11 10:32:00;;;;;;;6.25;2.20;;;28.50;99.90;;;;;;4964990;28;20034;-91
2023/07/11 10:34:54;;;;;;;3.60;1.88;;;28.80;1.00;;;;;;5078570;28;20061;-91
2023/07/11 10:37:40;;;;;;;4.10;2.00;;;28.80;99.90;;;;;;4975108;28;20042;-90
2023/07/11 10:40:28;;;;;;;4.03;2.10;;;29.10;1.00;;;;;;4988318;28;20034;-91
2023/07/11 10:43:23;;;;;;;4.65;2.15;;;29.00;1.00;;;;;;5014609;28;20040;-89
2023/07/11 10:45:56;;;;;;;4.68;1.83;;;29.10;1.00;;;;;;5082539;28;20138;-92
2023/07/11 10:48:38;;;;;;;5.43;2.40;;;29.20;99.90;;;;;;5040830;28;20051;-91
2023/07/11 10:51:15;;;;;;;4.05;1.98;;;29.30;1.00;;;;;;5050501;28;20042;-89
2023/07/11 10:53:55;;;;;;;3.55;2.35;;;29.70;1.00;;;;;;4996388;28;20046;-91
2023/07/11 10:56:29;;;;;;;7.20;2.45;;;29.50;99.90;;;;;;4967299;28;20047;-90
2023/07/11 10:58:55;;;;;;;;;;;29.40;99.90;;;;;;5061606;28;20054;-90
2023/07/11 11:01:30;;;;;;;4.25;2.00;;;29.50;99.90;;;;;;4963480;28;19918;-90
2023/07/11 11:04:40;;;;;;;5.25;2.20;;;29.60;1.00;;;;;;4978718;28;20039;-92
2023/07/11 11:07:33;;;;;;;3.10;2.10;;;29.80;99.90;;;;;;5076531;28;20050;-90
2023/07/11 11:10:28;;;;;;;8.48;2.90;;;29.70;99.90;;;;;;4978081;28;20486;-91
2023/07/11 11:13:17;;;;;;;4.55;2.38;;;29.80;99.90;;;;;;5065922;28;20612;-91
2023/07/11 11:16:06;;;;;;;3.88;2.00;;;30.20;99.90;;;;;;5063379;28;20051;-89
2023/07/11 11:18:45;;;;;;;3.30;2.10;;;29.80;99.90;;;;;;5064751;28;20042;-92
2023/07/11 11:21:48;;;;;;;3.65;1.85;;;30.10;99.90;;;;;;4968720;28;20042;-90
2023/07/11 11:24:41;;;;;;;3.90;2.20;;;30.30;99.90;;;;;;4981256;28;20081;-90
2023/07/11 11:27:38;;;;;;;3.25;1.98;;;30.40;99.90;;;;;;4963039;28;20133;-91
2023/07/11 11:30:13;;;;;;;3.38;2.17;;;30.70;99.90;;;;;;4964262;28;20039;-90
2023/07/11 11:32:52;;;;;;;4.70;2.47;;;30.70;99.90;;;;;;4983214;28;20035;-90
2023/07/11 11:35:42;;;;;;;4.18;2.00;;;31.10;99.90;;;;;;4983776;28;20053;-94
2023/07/11 11:38:27;;;;;;;3.95;2.38;;;31.10;99.90;;;;;;4983517;28;20065;-91
2023/07/11 11:40:59;;;;;;;4.68;2.58;;;30.90;99.90;;;;;;4981249;28;20042;-91
2023/07/11 11:43:27;;;;;;;5.88;2.15;;;31.10;99.90;;;;;;4969435;28;20043;-91
2023/07/11 11:45:54;;;;;;;7.57;2.60;;;31.40;99.90;;;;;;4946985;28;20112;-91
2023/07/11 11:48:27;;;;;;;3.30;1.63;;;31.20;34.80;;;;;;4962426;28;20445;-91
2023/07/11 11:50:53;;;;;;;4.90;1.80;;;31.10;16.40;;;;;;5073551;28;20058;-92
2023/07/11 11:53:43;;;;;;;5.97;2.10;;;30.40;1.00;;;;;;4979076;28;20039;-90
2023/07/11 11:56:17;;;;;;;2.63;1.73;;;30.40;1.00;;;;;;5063133;28;20039;-90
2023/07/11 11:59:12;;;;;;;2.78;1.73;;;30.50;4.20;;;;;;4945047;28;20047;-90
2023/07/11 12:01:53;;;;;;;8.60;2.45;;;30.70;1.00;;;;;;4956788;28;20055;-91
2023/07/11 12:04:34;;;;;;;3.28;1.88;;;31.10;1.00;;;;;;4963462;28;20046;-92
2023/07/11 12:07:08;;;;;;;2.95;1.95;;;31.30;1.00;;;;;;4961538;28;20473;-91
2023/07/11 12:09:52;;;;;;;3.55;2.10;;;30.90;1.00;;;;;;4961949;28;20046;-91
2023/07/11 12:12:45;;;;;;;5.20;2.20;;;30.60;1.00;;;;;;4961397;28;20498;-90
2023/07/11 12:15:11;;;;;;;5.10;2.37;;;30.70;1.00;;;;;;4961229;28;20082;-92
2023/07/11 12:17:39;;;;;;;2.75;1.85;;;31.10;1.00;;;;;;4960017;28;20110;-90
2023/07/11 12:20:10;;;;;;;2.58;1.90;;;31.30;1.00;;;;;;4959642;28;20053;-92
2023/07/11 12:22:38;;;;;;;4.28;2.10;;;31.50;1.00;;;;;;4964904;28;20030;-90
2023/07/11 12:25:16;;;;;;;7.75;2.47;;;31.50;1.00;;;;;;4969967;28;20549;-91
2023/07/11 12:27:46;;;;;;;6.13;2.20;;;31.40;1.00;;;;;;4976194;28;20039;-92
2023/07/11 12:30:15;;;;;;;4.57;2.22;;;31.20;1.00;;;;;;4945118;28;20031;-92
2023/07/11 12:32:48;;;;;;;3.80;2.42;;;31.40;1.00;;;;;;5059537;28;20043;-92
2023/07/11 12:35:18;;;;;;;3.72;2.13;;;30.70;1.00;;;;;;5059960;28;20121;-91
2023/07/11 12:37:54;;;;;;;2.60;1.73;;;30.90;1.00;;;;;;4959683;28;20064;-91
2023/07/11 12:40:49;;;;;;;4.97;1.63;;;30.30;1.00;;;;;;4975297;28;20039;-91
2023/07/11 12:43:31;;;;;;;3.80;1.88;;;30.70;1.00;;;;;;4959482;28;20042;-89
2023/07/11 12:46:01;;;;;;;3.72;1.75;;;30.60;1.00;;;;;;4973781;28;20038;-91
2023/07/11 12:48:39;;;;;;;4.63;1.90;;;30.70;1.00;;;;;;4977061;28;20532;-92
2023/07/11 12:51:27;;;;;;;4.22;1.98;;;30.80;1.00;;;;;;5059490;28;20065;-93
2023/07/11 12:54:11;;;;;;;2.60;1.73;;;30.60;1.00;;;;;;5025014;28;20089;-92
2023/07/11 12:56:47;;;;;;;;;;;30.70;1.00;;;;;;5038059;28;20101;-92
2023/07/11 12:59:20;;;;;;;1.90;1.70;;;30.20;1.00;;;;;;5078454;28;19935;-91
2023/07/11 13:01:47;;;;;;;;;;;30.30;1.00;;;;;;5062630;28;20048;-91
2023/07/11 13:04:35;;;;;;;4.55;2.42;;;30.00;1.00;;;;;;5033199;28;19918;-93
2023/07/11 13:07:08;;;;;;;2.88;1.90;;;30.00;1.00;;;;;;5077690;28;20057;-92
2023/07/11 13:09:53;;;;;;;3.78;2.40;;;30.10;1.00;;;;;;4976032;28;20050;-91